Race Results for
2007 USA Cycling Masters Track Nationals
Trexlertown, PA
(Event Information)
Individual Pursuit on 08/27/2007

Note: Ranking points are NOT upgrade points. An explanation of ranking points can be found here.


Men - Masters - 50-54 (2 Kilometers)

 Place Points NameCity, StateTime USAC #BibTeam
1430.62James Host   Plainfield, IL02:28.6 126420  193 The Bike Shop
2437.26Robert Black   11042 Nw 60th Terrrace02:29.0 70439  207 CCC/ Keltic Const/ Z
3443.90Scott Butler   Nazareth, PA02:29.3 139818  201 Bike Line/LWA
4450.54Don Clapp   Long Branch, NJ02:29.4 110108  179 Liberty Cycle
5457.18Craig Erickson   Plano, TX02:31.7 47142  200 Matix/RBM
6463.82Frank LaRondie   Carmel, IN02:32.1 185062  176 Bri Kovac All Stars
7470.46Lionel Space   Phoenix, AZ02:33.8 197647  278 Unattached
8477.10Joseph Field   Portland, OR02:34.8 267123  204 Eddie Bcycling
9483.74Brian Gristick   Budd Lake, NJ02:36.6 191647  276 Skylands Cycling
10490.38Shannon Fox   Englewood, CO02:37.4 46714  189 Cody Racing
11497.02Michael Haddad   Deal, NJ02:38.7 50865  187 DKNY / Signature Cyc
12503.66Curt Hurst   Jersey City, NJ02:38.9 181324  279 Liberty Cycle
13510.30Gregory Smith   Laurel, MD02:39.7 33144  175 Clean Currents p/b D
14516.94Frank Mesi   East Aurora, NY02:41.3 220917  199 AGEdwards/Fortistar
15523.58Michael McCue   La Jolla, CA02:41.7 243297  195 SDBC
16530.22John Boland   Santa Fe , NM02:41.9 66188  178 Unattached
17536.86Kevin Lee (1 - Cat3)   Glenn Dale, MD02:43.7 20729  174 ABRT/Team Latitude
18543.50Don Lux   Waynesville, NC02:46.9 194127  202 Asheville Bike racin
19550.14William Byatt   Albuquerque, NM02:51.8 88960  183 Jacksonville Racing
20556.78Steven Sawelson   Rolling Hills Estates, CA02:51.9 209614  188 South Bay Wheelmen
21563.42John Simmons   San Jose, CA02:55.3 90241  184 Shaws Garden City Cy
22570.06John Cohen   Newark, DE03:02.4 45197  205 Team Somerset/Van De
23576.70Phillip Dyer (1 - Cat5)   Brooklyn, NY03:07.9 67988  294 LWA/Bikeline
24589.98Dana Fallon   Island Heights, NJ 50966  208 Liberty Cycle
24583.34David Lain   Easton, MD 126152  186 Savannah Wheelmen

Men - Masters - 55-59 (2 Kilometers)

 Place Points NameCity, StateTime USAC #BibTeam
1513.33Steven Worley   Boulder, CO02:28.8 47502  229 Subway/Peerless
2519.57Chip Berezny   Coopersburg, PA02:32.3 45079  225 Bike Line/LWA
3525.81Patrick Gellineau   Brooklyn, NY02:34.7 45371  226 Team Squiggle
4532.05Andrew Buck   Dresher, PA02:34.8 129809  295 Bike Line/LWA
5538.29Paul Mack   Lafayette, CO02:39.4 22026  211 Subway/Peerless
6544.53Jeffrey Pallin   Menlo Park, CA02:43.7 106496  212 Third Pillar Systems
7550.77Andrew Mirzaoff   Lakewood, CA02:44.0 227389  224 Team Momentum
8557.01Kevin Tuttle   Jeffersonville, PA02:44.1 115508  228 Main Line/BiKyle
9563.25Frederick Hofman   Trout Run, PA02:44.2 16453  222 Bike Line/LWA
10569.49Joe Crenshaw   Frisco, TX02:45.8 248521  214 Pilot Point Cycling
11575.73William Thomsen   Atlanta, GA02:49.0 142154  221 East Point Track Clu
12581.97Jay PRESTON   Waukesha, WI02:57.0 200529  218 One Percent More!

Men - Masters - 60-64 (2 Kilometers)

 Place Points NameCity, StateTime USAC #BibTeam
1525.84Steven Lehman   Rock Hill, SC2:31.876(1) 54723  257 Tri-State Velo Amoro
2530.42John Goodman   Cary, IL2:45.649(2) 244220  245 Midwest Masters Cycl
3535.00Walter Lay   Louisville, KY2:46.154(3) 20594  252 Team Louisville
4539.58Robert Malovany   Tenafly, NJ2:48.775(4) 164301  253 Westwood Velo
5544.16Thomas Lobdell   Indianapolis, IN2:49.246(5) 45607  242 Delta Faucet/HRH
6548.74Fran Rudy   Ooltewah, TN2:50.255(6) 58193  251 Outdoor Chattanooga
7553.32John Campo   New York City, NY2:50.417(7) 48167  241 Karl Strauss-SDBC
8557.90John Forbes   Portland, OR2:51.584(8) 72771  256 Fred Meyer/Lakeside
9562.48Ronald Sutherland   Mathias, WV2:53.973(9) 143595  255 NCVC/Inova Health/Va
10567.06Edward Burns   Vestal, NY2:56.570(10) 59838  262 Tioga Velo
11571.64Richard Vichotka (1 - Cat4)   Long Grove, IL2:57.334(11) 115722  246 Midwest Masters Cycl
12576.22John Dowd   Watkinsville, GA2:59.812(12) 170350  258 Locos
13580.80Robert Phillips   Baltimore, MD3:00.341(13) 45795  250 Annapolis Bicycle Ra
14585.38Ben Williams   Dumfries, VA3:19.573(14) 38299  243 ABRT/Team Latitude
15589.96William WITTLIN (1 - Cat5)   Ithaca, NY 250571  248 William Wittlin

Men - Masters - 65-69 (2 Kilometers)

 Place Points NameCity, StateTime USAC #BibTeam
1532.08James Murdock   Loveland, CO02:40.0 63794  274 
2539.32Joe Saling   Bridgewater, NJ02:42.1 45887  267 
3546.56M Charles Moll   Fortville, IN02:54.3 45694  273 
4553.80Pete Floyd   Colorado Springs, CO02:54.4 215725  266 
5561.04Mike Macdonald   Rancho Cordova, CA02:56.0 45626  270 
6568.28Jack Patterson   Morton, IL02:56.9 58358  271 
7575.52Joseph Fineman   Oakland, CA02:57.5 51350  272 
8582.76Richard Keller   Oconomowoc, WI02:58.0 49788  265 
9590.00Darrel Fritzinger (1 - Cat5)   New Tripoli, PA03:10.3 249918  275 

Men - Masters - 70-99 (2 Kilometers)

 Place Points NameCity, StateTime USAC #BibTeam
1540.00Richard Simons   Yellowsprings, OH2:56.795(1) 85330  281 Team Apache
2552.50Skip Sparry   Plano, TX2:58.437(2) 46768  285 Matix/RBM
3565.00George Hansen   Lafayette, NJ2:58.755(3) 14979  287 Jaeger Wheelmen
4577.50Delroy Walters   Brooklyn, NY2:58.905(4) 51928  288 Kissena Cycling Club
5590.00Emile Levy   Anytown, NM3:11.352(5) 219933  289 Team Fit Taos

Women - Masters - 40-44 (2 Kilometers)

 Place Points NameCity, StateTime USAC #BibTeam
1507.00Kathryn Wilder   Doylestown, PA2:50.461(1) 43406  372 Bicycle John's Serio
2516.22Debbie Veitch   Stuart, FL2:51.219(2) 204547  338 Cycle Science
3525.44Cynthia Corbett   Katy, TX2:51.273(3) 172045  339 Team Spincycle
4534.66Tamara Stephas (1 - Cat2)   Seattle, WA2:51.825(4) 133090  345 ByrneInvent
5543.88Robin Pace   Asheville, NC2:53.889(5) 187835  371 Prestige Subaru
6553.10Lesli Meadows   Hendersonville, NC2:55.178(6) 232457  375 Prestige Subaru
7562.32Laura Johnson   Ann Arbor, MI2:59.966(7) 110465  374 SalonXL/AAVC
8571.54Julia Cross   Costa Mesa, CA3:00.411(8) 241726  341 South Bay Wheelmen
9580.76Imelda March   Chicago, IL3:07.134(9) 230149  378 Team Kenda Tire
10589.98Elizabeth Daro-Kaftan   Pennington, NJ3:08.435(10) 232298  376 Team Somerset/Van De

Women - Masters - 45-49 (2 Kilometers)

 Place Points NameCity, StateTime USAC #BibTeam
1449.80Annette Williams   Kenmore, WA2:44.770(1) 71338  363 Avanti TiCycles
2473.17Patty Powers   Kintnersville, PA2:53.201(2) 254858  362 Unattached
3496.54Janet Lischer   Colorado Springs, CO2:55.563(3) 21323  361 Hammer Racing Team
4519.91Julie DeWerd   Albuquerque, NM2:57.108(4) 57080  359 2CC
5543.28Cindi HART (1 - Cat1)   Indianapolis, IN2:57.682(5) 114634  366 IndySpeed
6566.65Dawn Wylong   Clinton, NJ3:21.163(6) 226052  357 Team Somerset/Van De
7590.02Renee Zajac   Pasadena, CA3:38.060(7) 243167  364 PAA/Merrill Lynch

Women - Masters - 50-54 (2 Kilometers)

 Place Points NameCity, StateTime USAC #BibTeam
1538.33Jane Rinard   2:49.111(1) 58895  390 Midwest Masters Cycl
2545.71Shannon Youngquist Lucy   Parker, CO2:49.994(2) 211316  395 Hammer Racing Team -
3553.09Ann Marie Love   Fort Worth, TX2:51.769(3) 21658  392 Matix/RBM
4560.47Julia Klinger   Pottstown, PA2:52.778(4) 183888  387 Tri-State Velo Amoro
5567.85Patricia Marzi   Kutztown, PA2:53.513(5) 191454  391 Team Fuji
6575.23Patricia Walsh   Chesterfield, MO2:55.602(6) 37105  397 Big Shark Racing
7582.61Kathie Zapotocki (1 - Cat4)   Zionsville, PA3:02.670(7) 267566  393 LWA/Bikeline
8589.99Arminda Fernandes   Ludlow, MA3:15.483(8) 61631  386 Bike Line/LWA

Women - Masters - 55-59 (2 Kilometers)

 Place Points NameCity, StateTime USAC #BibTeam
1523.06Terry Roach (1 - Cat1)   Scottsdale, AZ2:50.151(1) 72531  389 Landis/Trek
2545.37Elizabeth Tyrell   Annandale, NJ2:55.523(2) 49047  388 Team Somerset/Van De
3567.68Louella Holter   Flagstaff, AZ3:07.221(3) 45469  396 Greggs/Specialized
4589.99Elizabeth DiGennaro   Albany, CA3:28.254(4) 238069  385 Solo Velo/Cliff Bar

Women - Masters - 60-99 (2 Kilometers)

 Place Points NameCity, StateTime USAC #BibTeam
1Marsha Macro   Littleton, CO 201277  379 Hammer Racing Team -

Report missing or incorrect license numbers

Volkswagen
USACDFSpySierra NevadaBonk BreakerShimano
UCI USA Cycling is the official governing body for all disciplines of competitive cycling in the United States. The 501c3, membership-based organization aims both to achieve sustained success in international cycling competition and to grow competitive cycling in America while delivering an exceptional customer experience.
View Children's Online Privacy Protection Policy
US Olympic Committee